createdAt,value
2023-12-17T00:01:48.826Z,31.80
2023-12-17T00:06:50.585Z,25.13
2023-12-17T00:11:52.381Z,26.27
2023-12-17T00:16:54.132Z,24.30
2023-12-17T00:21:55.872Z,24.98
2023-12-17T00:26:58.510Z,22.75
2023-12-17T00:32:01.529Z,24.98
2023-12-17T00:37:03.821Z,24.75
2023-12-17T00:42:05.776Z,22.88
2023-12-17T00:47:07.564Z,27.02
2023-12-17T00:52:09.433Z,29.00
2023-12-17T00:57:11.391Z,24.13
2023-12-17T01:02:14.186Z,26.92
2023-12-17T01:07:15.948Z,27.73
2023-12-17T01:12:17.812Z,26.42
2023-12-17T01:17:19.606Z,25.05
2023-12-17T01:22:21.399Z,31.52
2023-12-17T01:27:23.385Z,27.80
2023-12-17T01:32:25.202Z,21.85
2023-12-17T01:37:26.947Z,25.95
2023-12-17T01:42:28.843Z,27.23
2023-12-17T01:47:30.724Z,29.60
2023-12-17T01:52:32.523Z,26.45
2023-12-17T01:57:34.762Z,25.15
2023-12-17T02:02:36.611Z,29.55
2023-12-17T02:07:41.434Z,26.52
2023-12-17T02:12:43.267Z,27.80
2023-12-17T02:17:45.615Z,21.48
2023-12-17T02:22:57.185Z,25.73
2023-12-17T02:27:59.730Z,28.08
2023-12-17T02:33:01.546Z,29.92
2023-12-17T02:38:03.831Z,26.20
2023-12-17T02:43:05.665Z,21.92
2023-12-17T02:48:07.641Z,26.02
2023-12-17T02:53:09.544Z,28.88
2023-12-17T02:58:12.199Z,25.80
2023-12-17T03:03:14.128Z,19.40
2023-12-17T03:08:16.537Z,27.95
2023-12-17T03:13:18.398Z,21.42
2023-12-17T03:18:20.538Z,26.60
2023-12-17T03:23:22.486Z,23.67
2023-12-17T03:28:24.359Z,23.38
2023-12-17T03:33:26.312Z,22.13
2023-12-17T03:38:28.315Z,24.48
2023-12-17T03:43:30.067Z,23.15
2023-12-17T03:48:32.171Z,21.33
2023-12-17T03:53:33.941Z,19.40
2023-12-17T03:58:36.016Z,21.98
2023-12-17T04:03:38.407Z,19.17
2023-12-17T04:08:40.262Z,18.98
2023-12-17T04:13:41.965Z,23.75
2023-12-17T04:18:43.877Z,21.48
2023-12-17T04:23:46.066Z,20.98
2023-12-17T04:28:47.809Z,21.83
2023-12-17T04:33:49.798Z,23.33
2023-12-17T04:38:51.806Z,20.60
2023-12-17T04:43:53.657Z,27.92
2023-12-17T04:48:56.072Z,20.95
2023-12-17T04:53:58.097Z,22.17
2023-12-17T04:58:59.919Z,13.98
2023-12-17T05:04:01.804Z,20.83
2023-12-17T05:09:04.291Z,16.80
2023-12-17T05:14:06.162Z,22.55
2023-12-17T05:19:08.182Z,21.10
2023-12-17T05:24:10.104Z,17.92
2023-12-17T05:29:11.965Z,21.50
2023-12-17T05:34:14.116Z,19.48
2023-12-17T05:39:16.082Z,18.63
2023-12-17T05:44:17.910Z,27.05
2023-12-17T05:49:20.107Z,19.67
2023-12-17T05:54:22.033Z,21.70
2023-12-17T05:59:24.930Z,21.60
2023-12-17T06:04:26.731Z,24.98
2023-12-17T06:09:28.567Z,22.70
2023-12-17T06:14:30.359Z,20.90
2023-12-17T06:19:32.277Z,23.25
2023-12-17T06:24:34.401Z,20.98
2023-12-17T06:29:36.216Z,22.30
2023-12-17T06:34:38.747Z,21.20
2023-12-17T06:39:43.731Z,16.23
2023-12-17T06:44:45.590Z,18.65
2023-12-17T06:49:48.582Z,18.63
2023-12-17T06:54:50.352Z,14.95
2023-12-17T06:59:52.193Z,18.23
2023-12-17T07:04:53.963Z,24.58
2023-12-17T07:09:55.721Z,18.08
2023-12-17T07:14:58.317Z,20.65
2023-12-17T07:20:00.224Z,16.48
2023-12-17T07:25:02.111Z,16.67
2023-12-17T07:30:04.758Z,18.77
2023-12-17T07:35:08.446Z,12.65
2023-12-17T07:40:10.611Z,15.00
2023-12-17T07:45:12.577Z,18.83
2023-12-17T07:50:16.516Z,21.30
2023-12-17T07:55:18.635Z,16.15
2023-12-17T08:00:20.627Z,17.20
2023-12-17T08:05:22.502Z,18.23
2023-12-17T08:10:24.267Z,18.30
2023-12-17T08:15:26.203Z,20.40
2023-12-17T08:20:28.007Z,17.10
2023-12-17T08:25:31.873Z,17.08
2023-12-17T08:30:34.280Z,15.77
2023-12-17T08:35:38.921Z,13.07
2023-12-17T08:40:41.775Z,10.63
2023-12-17T08:45:43.626Z,11.80
2023-12-17T08:50:45.420Z,10.52
2023-12-17T08:55:47.194Z,10.48
2023-12-17T09:00:49.116Z,11.02
2023-12-17T09:05:51.199Z,13.40
2023-12-17T09:10:52.968Z,13.98
2023-12-17T09:15:54.703Z,11.98
2023-12-17T09:20:57.021Z,12.75
2023-12-17T09:25:59.159Z,10.63
2023-12-17T09:31:02.494Z,12.82
2023-12-17T09:36:05.958Z,12.75
2023-12-17T09:41:09.082Z,12.40
2023-12-17T09:46:11.024Z,14.77
2023-12-17T09:51:14.348Z,13.93
2023-12-17T09:56:16.245Z,17.27
2023-12-17T10:01:18.204Z,16.25
2023-12-17T10:06:21.577Z,17.52
2023-12-17T10:11:24.466Z,16.15
2023-12-17T10:16:27.678Z,15.02
2023-12-17T10:21:29.720Z,13.57
2023-12-17T10:26:50.886Z,17.15
2023-12-17T10:31:54.388Z,16.55
2023-12-17T10:36:58.174Z,13.97
2023-12-17T10:42:02.501Z,14.40
2023-12-17T10:47:05.531Z,13.65
2023-12-17T10:52:08.052Z,13.50
2023-12-17T10:57:15.860Z,13.25
2023-12-17T11:02:20.737Z,11.48
2023-12-17T11:07:31.581Z,10.00
2023-12-17T11:12:45.526Z,12.02
2023-12-17T11:17:47.947Z,7.80
2023-12-17T11:22:53.573Z,9.30
2023-12-17T11:27:56.410Z,8.40
2023-12-17T11:32:59.973Z,9.50
2023-12-17T11:38:03.969Z,7.28
2023-12-17T11:43:06.912Z,10.82
2023-12-17T11:48:11.109Z,9.20
2023-12-17T11:58:17.250Z,7.72
2023-12-17T12:03:20.193Z,10.55
2023-12-17T12:08:22.337Z,10.70
2023-12-17T12:13:24.133Z,11.73
2023-12-17T12:18:26.489Z,10.75
2023-12-17T12:23:28.545Z,14.65
2023-12-17T12:28:30.723Z,18.67
2023-12-17T12:33:34.342Z,21.70
2023-12-17T12:38:36.299Z,13.60
2023-12-17T12:43:40.808Z,17.05
2023-12-17T12:48:42.758Z,17.17
2023-12-17T12:53:45.648Z,17.40
2023-12-17T12:58:48.162Z,17.35
2023-12-17T13:03:50.540Z,19.17
2023-12-17T13:08:52.526Z,19.05
2023-12-17T13:13:54.388Z,24.00
2023-12-17T13:19:02.106Z,14.07
2023-12-17T13:24:07.478Z,13.27
2023-12-17T13:29:10.027Z,17.85
2023-12-17T13:34:12.026Z,10.70
2023-12-17T13:39:14.894Z,13.75
2023-12-17T13:44:16.739Z,12.15
2023-12-17T13:49:18.577Z,11.07
2023-12-17T13:54:20.626Z,11.88
2023-12-17T13:59:22.746Z,10.13
2023-12-17T14:04:26.201Z,12.93
2023-12-17T14:09:30.911Z,12.60
2023-12-17T14:14:34.854Z,15.32
2023-12-17T14:19:39.534Z,12.50
2023-12-17T14:24:41.909Z,11.07
2023-12-17T14:29:43.842Z,15.57
2023-12-17T14:34:45.669Z,12.27
2023-12-17T14:39:47.464Z,30.60
2023-12-17T14:44:49.225Z,34.65
2023-12-17T14:49:51.021Z,34.40
2023-12-17T14:54:52.935Z,14.65
2023-12-17T14:59:54.996Z,16.45
2023-12-17T15:04:56.956Z,16.25
2023-12-17T15:10:04.841Z,15.65
2023-12-17T15:15:07.577Z,14.85
2023-12-17T15:20:09.467Z,13.25
2023-12-17T15:25:11.926Z,14.77
2023-12-17T15:30:14.258Z,14.85
2023-12-17T15:35:17.311Z,11.68
2023-12-17T15:40:21.980Z,11.68
2023-12-17T15:45:24.572Z,15.07
2023-12-17T15:50:26.381Z,15.05
2023-12-17T15:55:28.176Z,14.55
2023-12-17T16:00:30.088Z,14.80
2023-12-17T16:05:31.941Z,11.95
2023-12-17T16:10:33.745Z,14.77
2023-12-17T16:15:37.375Z,17.85
2023-12-17T16:20:40.140Z,16.30
2023-12-17T16:25:41.916Z,13.75
2023-12-17T16:30:45.330Z,13.68
2023-12-17T16:35:50.401Z,17.70
2023-12-17T16:40:52.257Z,17.58
2023-12-17T16:45:54.029Z,13.85
2023-12-17T16:50:55.939Z,18.98
2023-12-17T16:55:57.895Z,18.58
2023-12-17T17:00:59.945Z,20.10
2023-12-17T17:06:01.920Z,20.42
2023-12-17T17:11:10.901Z,23.25
2023-12-17T17:16:15.032Z,27.48
2023-12-17T17:21:16.920Z,16.40
2023-12-17T17:26:18.810Z,19.88
2023-12-17T17:31:20.851Z,13.20
2023-12-17T17:36:22.776Z,15.85
2023-12-17T17:41:24.707Z,24.77
2023-12-17T17:46:26.528Z,18.08
2023-12-17T17:51:28.357Z,17.65
2023-12-17T17:56:30.131Z,14.07
2023-12-17T18:01:35.708Z,20.15
2023-12-17T18:06:37.490Z,13.68
2023-12-17T18:11:39.515Z,17.05
2023-12-17T18:16:41.480Z,14.77
2023-12-17T18:21:43.291Z,17.77
2023-12-17T18:26:45.165Z,17.30
2023-12-17T18:31:46.961Z,16.70
2023-12-17T18:36:48.736Z,12.55
2023-12-17T18:41:50.564Z,12.82
2023-12-17T18:46:52.317Z,14.13
2023-12-17T18:51:54.320Z,12.13
2023-12-17T18:56:56.141Z,12.27
2023-12-17T19:01:57.920Z,14.07
2023-12-17T19:06:59.670Z,14.50
2023-12-17T19:12:01.455Z,14.50
2023-12-17T19:17:06.863Z,12.13
2023-12-17T19:22:09.579Z,12.48
2023-12-17T19:27:11.389Z,13.00
2023-12-17T19:32:13.228Z,11.40
2023-12-17T19:37:15.057Z,12.00
2023-12-17T19:42:16.990Z,10.32
2023-12-17T19:47:18.882Z,11.00
2023-12-17T19:52:21.432Z,11.13
2023-12-17T19:57:23.479Z,17.90
2023-12-17T20:02:25.308Z,20.45
2023-12-17T20:07:27.119Z,19.40
2023-12-17T20:12:30.700Z,23.40
2023-12-17T20:17:32.619Z,26.60
2023-12-17T20:22:34.416Z,22.48
2023-12-17T20:27:36.367Z,21.77
2023-12-17T20:32:38.377Z,17.88
2023-12-17T20:37:40.193Z,18.48
2023-12-17T20:42:42.190Z,14.07
2023-12-17T20:47:44.421Z,14.07
2023-12-17T20:52:46.328Z,15.25
2023-12-17T20:57:48.073Z,14.30
2023-12-17T21:02:49.930Z,16.55
2023-12-17T21:07:51.833Z,17.25
2023-12-17T21:12:53.686Z,13.60
2023-12-17T21:17:55.710Z,12.60
2023-12-17T21:22:58.793Z,16.25
2023-12-17T21:28:00.676Z,15.75
2023-12-17T21:33:04.575Z,15.50
2023-12-17T21:38:09.853Z,15.60
2023-12-17T21:43:11.956Z,18.67
2023-12-17T21:48:14.237Z,16.50
2023-12-17T21:53:16.086Z,18.45
2023-12-17T21:58:17.953Z,18.98
2023-12-17T22:03:20.115Z,20.58
2023-12-17T22:08:22.483Z,18.17
2023-12-17T22:13:24.284Z,19.10
2023-12-17T22:18:26.200Z,17.45
2023-12-17T22:23:28.043Z,18.05
2023-12-17T22:28:29.848Z,20.60
2023-12-17T22:33:31.773Z,21.25
2023-12-17T22:38:33.583Z,21.08
2023-12-17T22:43:35.492Z,18.15
2023-12-17T22:48:38.531Z,21.45
2023-12-17T22:53:40.429Z,20.75
2023-12-17T22:58:42.192Z,19.05
2023-12-17T23:03:44.330Z,20.75
2023-12-17T23:08:46.184Z,13.70
2023-12-17T23:13:48.472Z,26.05
2023-12-17T23:18:50.342Z,20.38
2023-12-17T23:23:52.205Z,23.30
2023-12-17T23:28:53.939Z,17.13
2023-12-17T23:33:55.885Z,24.83
2023-12-17T23:38:57.836Z,21.15
2023-12-17T23:43:59.598Z,25.90
2023-12-17T23:49:01.424Z,27.17
2023-12-17T23:54:04.065Z,26.15
2023-12-17T23:59:05.973Z,30.17
